Time;durP1;ratioP1;P1;durP2;ratioP2;P2;SDS_P1;SDS_P2;PMS_P1;PMS_P2;Temp;Humidity;BMP_temperature;BMP_pressure;BME280_temperature;BME280_humidity;BME280_pressure;Samples;Min_cycle;Max_cycle;Signal;HPM_P1;HPM_P2
2021/07/05 00:00:53;;;;;;;11.18;7.48;;;;;;;;;;374922;106;1962037;-71
2021/07/05 00:01:58;;;;;;;12.34;7.58;;;;;;;;;;360911;107;1964916;-72
2021/07/05 00:03:03;;;;;;;13.89;8.89;;;;;;;;;;320113;107;2204051;-70
2021/07/05 00:04:10;;;;;;;13.01;8.10;;;;;;;;;;303523;107;2351987;-71
2021/07/05 00:05:15;;;;;;;12.36;8.04;;;;;;;;;;377039;107;1962072;-71
2021/07/05 00:06:20;;;;;;;16.28;8.62;;;;;;;;;;373932;107;1964024;-71
2021/07/05 00:07:25;;;;;;;12.75;8.86;;;;;;;;;;375958;107;1962066;-71
2021/07/05 00:08:30;;;;;;;13.32;8.13;;;;;;;;;;376398;106;1962863;-70
2021/07/05 00:09:42;;;;;;;12.97;8.61;;;;;;;;;;393532;104;1986948;-72
2021/07/05 00:10:47;;;;;;;10.58;8.07;;;;;;;;;;371892;107;1964099;-71
2021/07/05 00:11:59;;;;;;;12.57;8.56;;;;;;;;;;393231;104;1985934;-71
2021/07/05 00:13:05;;;;;;;10.80;8.30;;;;;;;;;;376030;107;1961044;-72
2021/07/05 00:14:28;;;;;;;11.96;8.87;;;;;;;;;;377644;105;1960945;-72
2021/07/05 00:15:33;;;;;;;12.35;8.54;;;;;;;;;;375067;107;1960975;-72
2021/07/05 00:16:38;;;;;;;14.57;8.66;;;;;;;;;;369035;107;1960802;-72
2021/07/05 00:17:43;;;;;;;12.06;8.47;;;;;;;;;;360818;111;1963976;-72
2021/07/05 00:18:48;;;;;;;13.64;8.92;;;;;;;;;;361225;110;1961995;-72
2021/07/05 00:19:53;;;;;;;11.36;8.33;;;;;;;;;;362555;109;1962093;-71
2021/07/05 00:20:58;;;;;;;11.83;8.53;;;;;;;;;;356091;107;1962032;-71
2021/07/05 00:22:03;;;;;;;14.27;9.16;;;;;;;;;;331298;109;2047031;-70
2021/07/05 00:23:09;;;;;;;15.33;9.42;;;;;;;;;;298051;108;2350958;-71
2021/07/05 00:24:14;;;;;;;12.99;9.24;;;;;;;;;;355425;108;1962000;-71
2021/07/05 00:25:19;;;;;;;15.01;9.19;;;;;;;;;;343157;112;1961987;-71
2021/07/05 00:26:24;;;;;;;14.55;9.56;;;;;;;;;;332861;108;2014941;-71
2021/07/05 00:27:30;;;;;;;11.99;8.68;;;;;;;;;;300843;109;2319017;-72
2021/07/05 00:28:38;;;;;;;12.34;8.87;;;;;;;;;;325137;108;2103945;-71
2021/07/05 00:29:43;;;;;;;11.16;8.69;;;;;;;;;;368104;109;1961883;-71
2021/07/05 00:30:54;;;;;;;13.44;9.12;;;;;;;;;;394182;103;1984719;-72
2021/07/05 00:32:00;;;;;;;12.37;8.93;;;;;;;;;;374157;106;1970079;-71
2021/07/05 00:33:06;;;;;;;13.64;9.67;;;;;;;;;;375455;106;1961968;-71
2021/07/05 00:34:12;;;;;;;12.27;9.18;;;;;;;;;;338933;105;2604055;-71
2021/07/05 00:35:17;;;;;;;12.01;9.07;;;;;;;;;;315086;105;2228002;-71
2021/07/05 00:36:23;;;;;;;12.08;9.11;;;;;;;;;;374589;105;1961970;-72
2021/07/05 00:37:28;;;;;;;13.19;8.40;;;;;;;;;;374529;105;1962135;-72
2021/07/05 00:38:33;;;;;;;13.47;8.56;;;;;;;;;;364087;106;1962055;-72
2021/07/05 00:39:38;;;;;;;12.18;8.68;;;;;;;;;;350206;105;1961966;-71
2021/07/05 00:40:44;;;;;;;14.08;9.13;;;;;;;;;;374439;105;1963028;-72
2021/07/05 00:41:49;;;;;;;12.67;8.97;;;;;;;;;;364043;105;1961968;-70
2021/07/05 00:42:55;;;;;;;11.32;8.94;;;;;;;;;;325089;105;2145076;-70
2021/07/05 00:44:00;;;;;;;11.64;8.72;;;;;;;;;;374698;105;1962032;-72
2021/07/05 00:45:06;;;;;;;11.71;7.73;;;;;;;;;;373646;105;1964123;-72
2021/07/05 00:46:12;;;;;;;11.11;8.64;;;;;;;;;;375936;105;1961966;-69
2021/07/05 00:47:17;;;;;;;13.61;9.32;;;;;;;;;;374979;105;1961903;-70
2021/07/05 00:48:22;;;;;;;10.95;8.63;;;;;;;;;;373940;105;1962004;-70
2021/07/05 00:49:27;;;;;;;12.42;8.45;;;;;;;;;;374106;105;1964034;-70
2021/07/05 00:50:36;;;;;;;14.56;9.64;;;;;;;;;;339963;105;2608211;-71
2021/07/05 00:51:48;;;;;;;15.31;10.14;;;;;;;;;;388903;104;2072087;-70
2021/07/05 00:52:53;;;;;;;11.46;8.31;;;;;;;;;;373973;106;1962981;-71
2021/07/05 00:53:59;;;;;;;12.89;8.63;;;;;;;;;;376023;106;1961994;-72
2021/07/05 00:55:05;;;;;;;13.79;9.03;;;;;;;;;;374814;106;1961994;-71
2021/07/05 00:56:18;;;;;;;12.67;9.39;;;;;;;;;;334120;106;2824062;-70
2021/07/05 00:58:38;;;;;;;14.54;9.25;;;;;;;;;;393312;104;1986969;-72
2021/07/05 00:59:44;;;;;;;13.23;9.44;;;;;;;;;;331195;106;2100942;-71
2021/07/05 01:01:08;;;;;;;13.62;8.98;;;;;;;;;;371800;107;1962879;-70
2021/07/05 01:02:13;;;;;;;14.00;9.11;;;;;;;;;;370256;107;1962995;-69
2021/07/05 01:03:18;;;;;;;14.78;9.47;;;;;;;;;;370421;107;1961890;-71
2021/07/05 01:04:24;;;;;;;13.67;8.94;;;;;;;;;;370711;107;1963990;-70
2021/07/05 01:05:29;;;;;;;16.44;9.88;;;;;;;;;;369747;107;1962942;-72
2021/07/05 01:06:36;;;;;;;17.27;9.34;;;;;;;;;;370892;107;1961993;-71
2021/07/05 01:07:42;;;;;;;17.65;9.49;;;;;;;;;;370345;107;1962011;-71
2021/07/05 01:08:54;;;;;;;16.61;9.71;;;;;;;;;;391280;103;2077163;-72
2021/07/05 01:09:59;;;;;;;14.07;8.92;;;;;;;;;;375191;106;1962031;-70
2021/07/05 01:11:04;;;;;;;14.71;9.05;;;;;;;;;;369015;107;1962068;-72
2021/07/05 01:12:10;;;;;;;16.29;9.64;;;;;;;;;;370367;107;1962044;-70
2021/07/05 01:13:15;;;;;;;16.62;8.99;;;;;;;;;;369072;107;1962066;-71
2021/07/05 01:14:20;;;;;;;14.28;9.15;;;;;;;;;;370506;107;1962101;-73
2021/07/05 01:15:26;;;;;;;13.66;9.28;;;;;;;;;;369333;107;1961958;-70
2021/07/05 01:16:34;;;;;;;14.72;8.36;;;;;;;;;;359758;107;1961963;-71
2021/07/05 01:17:40;;;;;;;18.91;9.65;;;;;;;;;;369210;108;1962045;-71
2021/07/05 01:18:44;;;;;;;13.93;8.89;;;;;;;;;;368463;107;1964350;-72
2021/07/05 01:19:50;;;;;;;13.17;9.20;;;;;;;;;;359036;107;1963010;-71
2021/07/05 01:21:02;;;;;;;14.08;9.01;;;;;;;;;;369430;107;1961923;-71
2021/07/05 01:22:07;;;;;;;12.51;8.57;;;;;;;;;;370298;108;1964076;-71
2021/07/05 01:23:12;;;;;;;12.01;9.07;;;;;;;;;;369679;107;1961953;-71
2021/07/05 01:24:17;;;;;;;14.73;8.95;;;;;;;;;;369405;107;1964029;-72
2021/07/05 01:25:23;;;;;;;12.68;9.21;;;;;;;;;;369929;108;1961895;-73
2021/07/05 01:26:28;;;;;;;14.36;8.69;;;;;;;;;;356499;112;1961954;-72
2021/07/05 01:27:33;;;;;;;13.25;10.51;;;;;;;;;;355053;113;1962048;-72
2021/07/05 01:28:45;;;;;;;10.58;8.29;;;;;;;;;;385203;106;1985965;-72
2021/07/05 01:29:51;;;;;;;12.61;8.79;;;;;;;;;;369373;107;1969054;-71
2021/07/05 01:30:56;;;;;;;12.85;8.47;;;;;;;;;;366982;107;1962055;-72
2021/07/05 01:32:02;;;;;;;14.49;8.94;;;;;;;;;;366328;108;1963040;-70
2021/07/05 01:33:08;;;;;;;14.51;8.62;;;;;;;;;;294244;108;2358891;-72
2021/07/05 01:34:20;;;;;;;12.65;9.05;;;;;;;;;;396376;104;1965028;-70
2021/07/05 01:35:25;;;;;;;14.10;8.96;;;;;;;;;;378026;105;1962111;-72
2021/07/05 01:36:36;;;;;;;13.98;9.69;;;;;;;;;;395017;104;1987029;-71
2021/07/05 01:37:41;;;;;;;16.48;9.37;;;;;;;;;;378712;105;1968851;-71
2021/07/05 01:39:06;;;;;;;13.82;9.22;;;;;;;;;;362752;105;1962039;-72
2021/07/05 01:40:17;;;;;;;14.97;9.83;;;;;;;;;;380147;105;1962005;-73
2021/07/05 01:41:27;;;;;;;12.78;9.13;;;;;;;;;;393088;104;1985979;-71
2021/07/05 01:42:32;;;;;;;12.57;9.61;;;;;;;;;;373464;105;1963902;-72
2021/07/05 01:43:36;;;;;;;13.98;9.73;;;;;;;;;;373320;105;1962985;-71
2021/07/05 01:44:41;;;;;;;17.32;10.10;;;;;;;;;;376171;105;1960942;-71
2021/07/05 01:45:46;;;;;;;15.81;9.78;;;;;;;;;;375220;106;1964053;-71
2021/07/05 01:46:51;;;;;;;13.23;9.57;;;;;;;;;;370660;106;1962098;-71
2021/07/05 01:48:05;;;;;;;12.82;9.48;;;;;;;;;;383993;106;1986074;-71
2021/07/05 01:49:10;;;;;;;13.64;9.48;;;;;;;;;;369300;108;1962015;-72
2021/07/05 01:50:17;;;;;;;13.66;9.55;;;;;;;;;;314769;111;2132935;-71
2021/07/05 01:51:22;;;;;;;15.97;10.02;;;;;;;;;;340318;110;1961954;-71
2021/07/05 01:52:27;;;;;;;14.74;10.16;;;;;;;;;;325238;110;2034035;-71
2021/07/05 01:53:38;;;;;;;15.14;10.20;;;;;;;;;;392306;104;1986100;-71
2021/07/05 01:54:43;;;;;;;14.67;9.84;;;;;;;;;;376133;106;1961046;-70
2021/07/05 01:55:49;;;;;;;14.33;10.29;;;;;;;;;;370204;105;1962052;-72
2021/07/05 01:56:54;;;;;;;14.64;9.07;;;;;;;;;;364789;107;1961996;-71
2021/07/05 01:58:02;;;;;;;13.40;10.28;;;;;;;;;;371582;106;1963968;-70
2021/07/05 01:59:07;;;;;;;11.48;9.01;;;;;;;;;;373763;105;1964087;-71
2021/07/05 02:00:15;;;;;;;13.36;9.44;;;;;;;;;;375180;107;1962957;-72
2021/07/05 02:01:20;;;;;;;13.07;9.69;;;;;;;;;;372311;106;1961968;-72
2021/07/05 02:02:26;;;;;;;15.94;9.70;;;;;;;;;;374133;107;1961999;-72
2021/07/05 02:03:32;;;;;;;12.50;9.45;;;;;;;;;;368259;109;1962055;-73
2021/07/05 02:04:45;;;;;;;13.52;9.43;;;;;;;;;;391519;104;1986883;-72
2021/07/05 02:05:50;;;;;;;14.22;9.61;;;;;;;;;;311197;107;2247000;-72
2021/07/05 02:06:55;;;;;;;11.98;9.26;;;;;;;;;;303303;107;2299999;-71
2021/07/05 02:08:01;;;;;;;12.11;9.55;;;;;;;;;;308242;109;2384031;-69
2021/07/05 02:09:07;;;;;;;13.58;10.08;;;;;;;;;;341191;108;1961932;-70
2021/07/05 02:10:20;;;;;;;13.49;9.93;;;;;;;;;;382140;106;2070882;-70
2021/07/05 02:11:25;;;;;;;13.91;9.61;;;;;;;;;;369012;108;1968757;-71
2021/07/05 02:12:39;;;;;;;12.26;9.12;;;;;;;;;;359145;104;2023073;-71
2021/07/05 02:13:51;;;;;;;13.06;9.27;;;;;;;;;;392717;104;1987084;-72
2021/07/05 02:15:15;;;;;;;17.30;10.08;;;;;;;;;;376073;107;1963134;-72
2021/07/05 02:16:22;;;;;;;14.42;9.28;;;;;;;;;;367173;109;1961943;-72
2021/07/05 02:17:27;;;;;;;13.98;9.54;;;;;;;;;;367917;109;1961882;-72
2021/07/05 02:18:33;;;;;;;11.28;8.42;;;;;;;;;;365686;109;1962028;-72
2021/07/05 02:19:44;;;;;;;14.44;10.29;;;;;;;;;;389769;103;2071905;-72
2021/07/05 02:20:49;;;;;;;16.24;9.62;;;;;;;;;;359613;105;1970067;-71
2021/07/05 02:21:54;;;;;;;13.99;9.24;;;;;;;;;;351208;107;1961915;-72
2021/07/05 02:23:00;;;;;;;16.27;10.12;;;;;;;;;;326235;107;2117042;-72
2021/07/05 02:24:05;;;;;;;13.41;9.51;;;;;;;;;;352860;107;1962023;-72
2021/07/05 02:25:11;;;;;;;12.61;9.39;;;;;;;;;;333848;107;2050804;-72
2021/07/05 02:26:16;;;;;;;14.94;9.84;;;;;;;;;;376853;107;1963918;-71
2021/07/05 02:27:21;;;;;;;16.47;9.56;;;;;;;;;;377133;106;1961987;-71
2021/07/05 02:28:27;;;;;;;14.71;9.51;;;;;;;;;;375935;105;1962925;-70
2021/07/05 02:29:32;;;;;;;14.71;8.66;;;;;;;;;;377211;106;1961866;-71
2021/07/05 02:30:47;;;;;;;22.48;11.41;;;;;;;;;;389217;103;1987017;-71
2021/07/05 02:31:52;;;;;;;18.38;11.35;;;;;;;;;;365962;107;1961895;-72
2021/07/05 02:32:58;;;;;;;15.66;10.52;;;;;;;;;;366146;107;1961933;-71
2021/07/05 02:34:04;;;;;;;15.58;10.39;;;;;;;;;;366330;107;1962068;-72
2021/07/05 02:35:10;;;;;;;15.67;10.71;;;;;;;;;;366266;107;1961994;-72
2021/07/05 02:36:16;;;;;;;16.29;11.37;;;;;;;;;;366694;107;1961978;-71
2021/07/05 02:37:22;;;;;;;16.94;12.02;;;;;;;;;;365482;107;1962010;-73
2021/07/05 02:38:28;;;;;;;14.62;12.12;;;;;;;;;;328234;107;2687355;-72
2021/07/05 02:39:33;;;;;;;18.60;12.79;;;;;;;;;;315725;107;2404996;-72
2021/07/05 02:40:44;;;;;;;19.36;15.08;;;;;;;;;;368180;107;1962041;-71
2021/07/05 02:41:50;;;;;;;17.66;15.13;;;;;;;;;;337485;107;1966038;-70
2021/07/05 02:42:55;;;;;;;19.56;14.11;;;;;;;;;;367390;108;1962043;-71
2021/07/05 02:44:00;;;;;;;18.03;14.19;;;;;;;;;;360253;107;1962005;-71
2021/07/05 02:45:13;;;;;;;17.84;14.17;;;;;;;;;;391810;104;1986062;-73
2021/07/05 02:46:20;;;;;;;20.18;13.78;;;;;;;;;;324350;106;2890068;-72
2021/07/05 02:47:25;;;;;;;16.32;13.49;;;;;;;;;;313966;106;2244974;-71
2021/07/05 02:48:32;;;;;;;16.33;11.52;;;;;;;;;;352606;107;1962047;-71
2021/07/05 02:49:37;;;;;;;13.42;10.56;;;;;;;;;;374683;106;1962027;-71
2021/07/05 02:50:44;;;;;;;12.40;10.13;;;;;;;;;;375353;106;1962071;-73
2021/07/05 02:51:48;;;;;;;14.85;10.75;;;;;;;;;;374833;106;1961982;-73
2021/07/05 02:52:54;;;;;;;16.92;12.09;;;;;;;;;;375997;106;1964920;-71
2021/07/05 02:53:59;;;;;;;13.36;9.92;;;;;;;;;;375670;106;1962019;-73
2021/07/05 02:55:12;;;;;;;17.02;10.75;;;;;;;;;;378391;108;1986926;-71
2021/07/05 02:56:18;;;;;;;15.23;10.62;;;;;;;;;;349769;111;1963968;-72
2021/07/05 02:57:32;;;;;;;15.31;10.48;;;;;;;;;;333021;114;1962081;-72
2021/07/05 02:59:03;;;;;;;16.28;10.44;;;;;;;;;;346617;99;2296879;-71
2021/07/05 03:00:10;;;;;;;14.78;10.36;;;;;;;;;;332864;101;2214900;-71
2021/07/05 03:01:17;;;;;;;16.32;10.34;;;;;;;;;;395782;101;1961994;-73
2021/07/05 03:02:22;;;;;;;15.29;10.37;;;;;;;;;;394625;101;1961908;-72
2021/07/05 03:03:28;;;;;;;15.61;10.43;;;;;;;;;;395472;101;1961893;-72
2021/07/05 03:04:33;;;;;;;15.13;10.22;;;;;;;;;;392860;100;1961946;-71
2021/07/05 03:05:38;;;;;;;20.62;10.55;;;;;;;;;;391431;101;1961989;-73
2021/07/05 03:06:43;;;;;;;18.38;10.94;;;;;;;;;;383444;103;1961991;-72
2021/07/05 03:07:49;;;;;;;12.58;10.47;;;;;;;;;;386439;102;1962039;-72
2021/07/05 03:08:54;;;;;;;14.11;9.87;;;;;;;;;;394025;101;1962896;-72
2021/07/05 03:09:59;;;;;;;14.16;10.38;;;;;;;;;;393903;101;1963426;-73
2021/07/05 03:11:08;;;;;;;15.78;10.41;;;;;;;;;;385402;101;2853991;-73
2021/07/05 03:12:13;;;;;;;14.07;10.38;;;;;;;;;;391649;102;1962003;-72
2021/07/05 03:13:18;;;;;;;16.09;10.31;;;;;;;;;;389318;101;1962024;-72
2021/07/05 03:14:23;;;;;;;14.99;11.41;;;;;;;;;;390229;101;1961826;-73
2021/07/05 03:15:28;;;;;;;15.13;12.09;;;;;;;;;;380155;103;1964089;-72
2021/07/05 03:16:34;;;;;;;20.06;17.02;;;;;;;;;;384355;101;1963080;-73
2021/07/05 03:17:39;;;;;;;25.64;20.76;;;;;;;;;;390813;101;1962066;-70
2021/07/05 03:18:44;;;;;;;33.84;30.44;;;;;;;;;;390656;102;1961876;-71
2021/07/05 03:19:50;;;;;;;37.01;33.28;;;;;;;;;;392841;101;1962023;-71
2021/07/05 03:21:02;;;;;;;41.02;36.95;;;;;;;;;;386454;103;2071029;-73
2021/07/05 03:22:08;;;;;;;40.92;36.70;;;;;;;;;;370123;107;1961892;-72
2021/07/05 03:23:14;;;;;;;41.99;37.48;;;;;;;;;;363476;107;2888934;-71
2021/07/05 03:24:19;;;;;;;39.27;33.62;;;;;;;;;;345996;107;1961966;-72
2021/07/05 03:25:25;;;;;;;33.84;30.48;;;;;;;;;;315028;109;2123955;-71
2021/07/05 03:26:30;;;;;;;31.12;27.02;;;;;;;;;;371734;107;1962002;-72
2021/07/05 03:27:35;;;;;;;28.99;25.92;;;;;;;;;;373125;107;1960963;-71
2021/07/05 03:28:40;;;;;;;26.22;23.53;;;;;;;;;;361766;107;1962019;-72
2021/07/05 03:29:45;;;;;;;25.13;21.72;;;;;;;;;;344395;107;1961967;-71
2021/07/05 03:30:51;;;;;;;20.53;18.24;;;;;;;;;;342252;107;1962808;-71
2021/07/05 03:32:04;;;;;;;21.13;18.21;;;;;;;;;;388624;104;2070998;-71
2021/07/05 03:33:09;;;;;;;17.50;15.39;;;;;;;;;;374868;107;1961995;-72
2021/07/05 03:34:15;;;;;;;23.87;16.33;;;;;;;;;;374439;107;1962023;-71
2021/07/05 03:35:21;;;;;;;16.50;14.18;;;;;;;;;;374092;107;1964050;-71
2021/07/05 03:36:28;;;;;;;16.29;12.80;;;;;;;;;;369570;107;1961974;-72
2021/07/05 03:37:32;;;;;;;18.36;13.53;;;;;;;;;;362820;107;1964926;-72
2021/07/05 03:38:44;;;;;;;17.70;13.23;;;;;;;;;;394372;104;1987905;-73
2021/07/05 03:39:49;;;;;;;18.91;12.59;;;;;;;;;;375345;105;1969963;-73
2021/07/05 03:40:54;;;;;;;14.92;12.39;;;;;;;;;;372535;107;1962868;-71
2021/07/05 03:41:59;;;;;;;17.37;12.56;;;;;;;;;;357118;107;1961964;-72
2021/07/05 03:43:04;;;;;;;14.53;11.39;;;;;;;;;;336489;107;2000886;-71
2021/07/05 03:44:09;;;;;;;13.81;10.79;;;;;;;;;;336558;109;1963087;-73
2021/07/05 03:45:15;;;;;;;15.49;10.57;;;;;;;;;;346254;107;1963939;-71
2021/07/05 03:46:27;;;;;;;17.67;11.63;;;;;;;;;;392621;104;1965053;-72
2021/07/05 03:47:32;;;;;;;15.09;11.39;;;;;;;;;;374772;105;1964094;-72
2021/07/05 03:48:37;;;;;;;14.99;11.14;;;;;;;;;;376328;105;1961952;-73
2021/07/05 03:49:42;;;;;;;15.58;11.42;;;;;;;;;;375971;105;1962954;-71
2021/07/05 03:50:50;;;;;;;14.64;11.48;;;;;;;;;;375999;105;1962089;-72
2021/07/05 03:51:55;;;;;;;14.61;10.08;;;;;;;;;;364933;106;2921947;-72
2021/07/05 03:53:07;;;;;;;18.56;10.62;;;;;;;;;;356338;104;2072896;-70
2021/07/05 03:54:12;;;;;;;15.61;11.17;;;;;;;;;;363768;104;1961923;-71
2021/07/05 03:55:19;;;;;;;15.83;11.03;;;;;;;;;;361942;104;1961944;-73
2021/07/05 03:56:24;;;;;;;13.76;10.70;;;;;;;;;;374025;106;1962062;-72
2021/07/05 03:57:29;;;;;;;16.32;10.76;;;;;;;;;;374728;106;1961882;-72
2021/07/05 03:58:34;;;;;;;17.72;10.76;;;;;;;;;;374995;106;1963044;-73
2021/07/05 03:59:46;;;;;;;14.94;10.38;;;;;;;;;;394063;104;1987059;-72
2021/07/05 04:00:51;;;;;;;16.63;11.04;;;;;;;;;;373830;107;1961997;-72
2021/07/05 04:01:56;;;;;;;16.02;11.64;;;;;;;;;;370588;107;1962078;-72
2021/07/05 04:03:09;;;;;;;16.62;12.44;;;;;;;;;;351725;101;2861000;-71
2021/07/05 04:04:14;;;;;;;15.59;11.66;;;;;;;;;;350066;103;2053889;-72
2021/07/05 04:05:19;;;;;;;17.21;10.91;;;;;;;;;;314416;103;2347002;-72
2021/07/05 04:06:32;;;;;;;17.31;10.58;;;;;;;;;;391168;103;1973007;-74
2021/07/05 04:07:37;;;;;;;15.83;10.89;;;;;;;;;;373179;107;1961976;-72
2021/07/05 04:08:42;;;;;;;18.39;10.69;;;;;;;;;;374702;105;1962049;-71
2021/07/05 04:09:47;;;;;;;15.52;11.12;;;;;;;;;;374395;107;1963999;-72
2021/07/05 04:10:52;;;;;;;14.74;10.80;;;;;;;;;;374331;105;1961853;-73
2021/07/05 04:11:57;;;;;;;16.09;11.45;;;;;;;;;;375007;105;1962042;-75
2021/07/05 04:13:06;;;;;;;14.98;11.46;;;;;;;;;;375593;106;1961998;-72
2021/07/05 04:14:17;;;;;;;17.21;11.87;;;;;;;;;;355453;101;2810003;-72
2021/07/05 04:15:22;;;;;;;17.58;13.10;;;;;;;;;;310689;103;2350011;-71
2021/07/05 04:16:29;;;;;;;13.43;10.69;;;;;;;;;;385254;103;1960845;-72
2021/07/05 04:17:35;;;;;;;15.76;11.11;;;;;;;;;;385248;103;1960838;-73
2021/07/05 04:18:40;;;;;;;13.53;10.42;;;;;;;;;;385992;103;1961718;-72
2021/07/05 04:19:46;;;;;;;16.41;10.99;;;;;;;;;;385589;103;1961858;-73
2021/07/05 04:20:52;;;;;;;18.44;13.31;;;;;;;;;;385245;103;1960858;-71
2021/07/05 04:21:57;;;;;;;18.60;11.91;;;;;;;;;;384551;104;1960916;-74
2021/07/05 04:23:02;;;;;;;14.79;11.63;;;;;;;;;;383354;104;1964020;-72
2021/07/05 04:24:07;;;;;;;17.79;15.51;;;;;;;;;;385205;103;1961038;-72
2021/07/05 04:25:13;;;;;;;15.31;11.51;;;;;;;;;;382521;103;1961930;-71
2021/07/05 04:26:20;;;;;;;17.95;11.89;;;;;;;;;;384144;103;1962007;-73
2021/07/05 04:27:31;;;;;;;16.80;11.73;;;;;;;;;;384614;103;2073994;-72
2021/07/05 04:28:36;;;;;;;13.40;10.70;;;;;;;;;;354642;107;1969946;-73
2021/07/05 04:29:42;;;;;;;13.96;11.02;;;;;;;;;;337938;105;2026012;-72
2021/07/05 04:30:49;;;;;;;15.45;11.46;;;;;;;;;;372429;105;1963153;-72
2021/07/05 04:31:54;;;;;;;16.38;11.59;;;;;;;;;;370017;107;1962000;-73
2021/07/05 04:33:01;;;;;;;15.01;11.04;;;;;;;;;;370140;107;1961861;-72
2021/07/05 04:34:06;;;;;;;15.13;11.17;;;;;;;;;;369642;108;1961994;-73
2021/07/05 04:35:14;;;;;;;20.44;12.06;;;;;;;;;;373365;107;1961979;-72
2021/07/05 04:36:19;;;;;;;14.43;11.56;;;;;;;;;;370420;108;1964058;-73
2021/07/05 04:37:30;;;;;;;14.71;11.16;;;;;;;;;;393490;104;1986055;-73
2021/07/05 04:38:36;;;;;;;17.34;12.29;;;;;;;;;;375140;105;1962021;-74
2021/07/05 04:39:41;;;;;;;16.62;12.96;;;;;;;;;;375952;105;1961980;-74
2021/07/05 04:40:46;;;;;;;16.55;12.57;;;;;;;;;;372586;105;1961908;-74
2021/07/05 04:41:51;;;;;;;18.49;11.94;;;;;;;;;;371723;106;1966060;-73
2021/07/05 04:42:56;;;;;;;14.01;10.64;;;;;;;;;;371183;106;1962077;-70
2021/07/05 04:44:01;;;;;;;14.67;11.57;;;;;;;;;;371539;106;1961954;-73
2021/07/05 04:45:08;;;;;;;16.33;11.84;;;;;;;;;;372062;106;1961744;-72
2021/07/05 04:46:22;;;;;;;15.75;10.79;;;;;;;;;;394108;103;1985963;-72
2021/07/05 04:47:27;;;;;;;20.87;10.80;;;;;;;;;;370566;105;1969077;-72
2021/07/05 04:48:32;;;;;;;17.08;11.73;;;;;;;;;;362218;108;1961969;-73
2021/07/05 04:49:44;;;;;;;14.32;10.82;;;;;;;;;;388227;106;1987010;-72
2021/07/05 04:50:49;;;;;;;18.32;11.78;;;;;;;;;;367880;107;1970064;-73
2021/07/05 04:51:54;;;;;;;14.08;10.65;;;;;;;;;;361754;109;1962074;-74
2021/07/05 04:52:59;;;;;;;14.09;10.83;;;;;;;;;;363883;109;1965002;-72
2021/07/05 04:54:04;;;;;;;15.76;10.46;;;;;;;;;;362214;109;1962085;-73
2021/07/05 04:55:10;;;;;;;14.20;10.98;;;;;;;;;;351938;109;1962968;-72
2021/07/05 04:56:16;;;;;;;14.58;10.52;;;;;;;;;;362996;109;1962055;-71
2021/07/05 04:57:21;;;;;;;13.64;10.88;;;;;;;;;;363314;109;1962107;-74
2021/07/05 04:58:26;;;;;;;15.19;9.91;;;;;;;;;;363403;109;1962003;-73
2021/07/05 04:59:32;;;;;;;20.52;16.23;;;;;;;;;;364223;109;1962012;-73
2021/07/05 05:00:37;;;;;;;16.06;11.44;;;;;;;;;;362689;109;1961983;-73
2021/07/05 05:01:44;;;;;;;16.05;11.71;;;;;;;;;;363252;109;1962004;-73
2021/07/05 05:02:50;;;;;;;15.34;10.37;;;;;;;;;;362522;109;1962019;-76
2021/07/05 05:04:02;;;;;;;17.11;11.09;;;;;;;;;;321948;106;2367075;-72
2021/07/05 05:05:08;;;;;;;13.88;9.66;;;;;;;;;;315413;108;2191080;-73
2021/07/05 05:06:13;;;;;;;16.92;11.68;;;;;;;;;;361752;111;1961981;-72
2021/07/05 05:07:25;;;;;;;14.59;10.04;;;;;;;;;;394404;104;1985896;-74
2021/07/05 05:08:30;;;;;;;18.93;10.29;;;;;;;;;;366821;109;1968923;-73
2021/07/05 05:09:34;;;;;;;15.27;11.36;;;;;;;;;;374684;106;1964041;-73
2021/07/05 05:10:46;;;;;;;13.60;11.96;;;;;;;;;;390274;104;1985899;-73
2021/07/05 05:11:51;;;;;;;13.47;10.24;;;;;;;;;;368619;107;1962961;-73
2021/07/05 05:12:56;;;;;;;15.91;11.11;;;;;;;;;;364880;108;1961972;-73
2021/07/05 05:14:02;;;;;;;16.67;11.08;;;;;;;;;;365666;108;1962060;-72
2021/07/05 05:15:08;;;;;;;14.43;11.50;;;;;;;;;;367871;107;1962088;-72
2021/07/05 05:16:16;;;;;;;16.22;12.18;;;;;;;;;;300977;108;2336919;-72
2021/07/05 05:17:23;;;;;;;15.71;11.41;;;;;;;;;;367100;107;1963022;-71
2021/07/05 05:18:29;;;;;;;14.46;11.52;;;;;;;;;;368071;107;1962049;-72
2021/07/05 05:19:41;;;;;;;17.83;11.12;;;;;;;;;;395378;104;1964986;-71
2021/07/05 05:20:46;;;;;;;16.98;12.21;;;;;;;;;;373957;106;1961993;-73
2021/07/05 05:21:51;;;;;;;13.64;10.60;;;;;;;;;;370819;107;1962082;-72
2021/07/05 05:22:57;;;;;;;18.22;13.15;;;;;;;;;;369963;107;1960955;-73
2021/07/05 05:24:02;;;;;;;16.60;11.73;;;;;;;;;;370907;107;1962018;-72
2021/07/05 05:25:10;;;;;;;16.36;11.71;;;;;;;;;;328877;107;2887867;-74
2021/07/05 05:26:15;;;;;;;15.39;11.18;;;;;;;;;;371187;107;1962023;-74
2021/07/05 05:27:20;;;;;;;19.19;11.77;;;;;;;;;;369385;107;1962041;-73
2021/07/05 05:28:26;;;;;;;18.78;13.80;;;;;;;;;;370057;107;1962015;-73
2021/07/05 05:29:38;;;;;;;15.31;11.41;;;;;;;;;;377753;108;1985989;-73
2021/07/05 05:30:43;;;;;;;16.29;11.56;;;;;;;;;;356079;112;1969997;-72
2021/07/05 05:31:48;;;;;;;17.37;11.84;;;;;;;;;;350565;113;1962089;-72
2021/07/05 05:32:54;;;;;;;15.97;12.04;;;;;;;;;;350356;113;1961921;-71
2021/07/05 05:34:11;;;;;;;18.77;12.42;;;;;;;;;;356352;106;2518999;-73
2021/07/05 05:35:19;;;;;;;18.28;11.85;;;;;;;;;;294283;107;2413023;-73
2021/07/05 05:36:30;;;;;;;14.14;11.22;;;;;;;;;;393359;104;1986084;-73
2021/07/05 05:37:35;;;;;;;16.08;11.58;;;;;;;;;;375463;105;1963018;-72
2021/07/05 05:38:45;;;;;;;15.81;10.86;;;;;;;;;;374914;107;1964946;-71
2021/07/05 05:39:47;;;;;;;15.15;11.42;;;;;;;;;;366246;105;2901970;-73
2021/07/05 05:40:54;;;;;;;20.01;11.53;;;;;;;;;;359703;106;2837017;-73
2021/07/05 05:42:07;;;;;;;13.31;10.41;;;;;;;;;;378474;108;1987023;-73
2021/07/05 05:43:12;;;;;;;20.02;11.31;;;;;;;;;;361754;110;1970762;-72
2021/07/05 05:44:28;;;;;;;18.68;11.01;;;;;;;;;;363160;110;1962033;-71
2021/07/05 05:45:32;;;;;;;19.86;11.47;;;;;;;;;;343778;114;1962115;-72
2021/07/05 05:46:40;;;;;;;16.39;10.86;;;;;;;;;;343822;116;1961850;-73
2021/07/05 05:47:47;;;;;;;14.41;10.49;;;;;;;;;;304374;116;2892000;-74
2021/07/05 05:49:18;;;;;;;17.49;11.67;;;;;;;;;;407304;99;2071959;-73
2021/07/05 05:50:24;;;;;;;15.18;10.88;;;;;;;;;;398275;99;1961949;-73
2021/07/05 05:51:35;;;;;;;16.17;11.16;;;;;;;;;;389327;101;1961992;-72
2021/07/05 05:52:42;;;;;;;15.14;11.52;;;;;;;;;;392447;102;1961919;-73
2021/07/05 05:53:48;;;;;;;19.28;11.98;;;;;;;;;;316706;102;2445909;-73
2021/07/05 05:55:00;;;;;;;18.13;12.45;;;;;;;;;;382764;106;2070984;-71
2021/07/05 05:56:05;;;;;;;14.13;10.60;;;;;;;;;;367575;108;1961904;-72
2021/07/05 05:57:25;;;;;;;17.41;12.92;;;;;;;;;;361801;110;1962029;-74
2021/07/05 05:58:17;;;;;;;16.79;11.91;;;;;;;;;;363144;110;1962995;-74
2021/07/05 05:59:22;;;;;;;15.42;10.60;;;;;;;;;;367255;108;1961986;-74
2021/07/05 06:00:30;;;;;;;18.27;12.47;;;;;;;;;;366725;109;1961845;-73
2021/07/05 06:01:36;;;;;;;15.19;10.46;;;;;;;;;;365816;110;1961919;-74
2021/07/05 06:02:42;;;;;;;16.81;11.79;;;;;;;;;;339057;110;1987906;-74
2021/07/05 06:03:47;;;;;;;18.22;11.52;;;;;;;;;;366553;110;1963919;-74
2021/07/05 06:04:52;;;;;;;14.44;11.52;;;;;;;;;;353350;109;1963825;-74
2021/07/05 06:05:58;;;;;;;18.72;13.27;;;;;;;;;;307597;109;2296595;-73
2021/07/05 06:07:03;;;;;;;16.97;12.96;;;;;;;;;;347159;108;1964924;-73
2021/07/05 06:08:14;;;;;;;17.26;12.49;;;;;;;;;;395001;103;1985978;-73
2021/07/05 06:09:19;;;;;;;17.01;11.83;;;;;;;;;;375579;105;1961992;-74
2021/07/05 06:10:26;;;;;;;17.88;13.49;;;;;;;;;;373706;105;1964372;-73
2021/07/05 06:11:32;;;;;;;14.46;11.35;;;;;;;;;;369677;107;1962993;-73
2021/07/05 06:12:37;;;;;;;14.57;11.28;;;;;;;;;;370211;107;1962026;-73
2021/07/05 06:13:43;;;;;;;14.89;10.55;;;;;;;;;;370766;107;1963000;-73
2021/07/05 06:14:55;;;;;;;19.34;12.63;;;;;;;;;;403317;101;1985840;-72
2021/07/05 06:16:00;;;;;;;15.90;11.94;;;;;;;;;;382617;105;1972054;-71
2021/07/05 06:17:06;;;;;;;16.35;11.94;;;;;;;;;;381324;105;1960999;-74
2021/07/05 06:18:11;;;;;;;13.53;10.49;;;;;;;;;;365933;105;2866038;-74
2021/07/05 06:19:17;;;;;;;14.01;10.87;;;;;;;;;;376228;105;1962142;-73
2021/07/05 06:20:23;;;;;;;16.62;11.42;;;;;;;;;;380559;104;1964100;-74
2021/07/05 06:21:33;;;;;;;16.60;11.91;;;;;;;;;;380553;105;1962003;-73